sensor_id;sensor_type;location;lat;lon;timestamp;temperature;humidity
5280;DHT22;2663;53.588;10.010;2023-03-01T00:00:08;3.30;99.90
5280;DHT22;2663;53.588;10.010;2023-03-01T00:02:35;3.20;99.90
5280;DHT22;2663;53.588;10.010;2023-03-01T00:05:01;3.20;99.90
5280;DHT22;2663;53.588;10.010;2023-03-01T00:07:29;3.20;99.90
5280;DHT22;2663;53.588;10.010;2023-03-01T00:09:55;3.40;99.90
5280;DHT22;2663;53.588;10.010;2023-03-01T00:12:22;3.40;99.90
5280;DHT22;2663;53.588;10.010;2023-03-01T00:14:49;3.50;99.90
5280;DHT22;2663;53.588;10.010;2023-03-01T00:17:15;3.40;99.90
5280;DHT22;2663;53.588;10.010;2023-03-01T00:19:42;3.40;99.90
5280;DHT22;2663;53.588;10.010;2023-03-01T00:22:09;3.40;99.90
5280;DHT22;2663;53.588;10.010;2023-03-01T00:24:35;3.40;99.90
5280;DHT22;2663;53.588;10.010;2023-03-01T00:27:02;3.30;99.90
5280;DHT22;2663;53.588;10.010;2023-03-01T00:29:29;3.20;99.90
5280;DHT22;2663;53.588;10.010;2023-03-01T00:31:55;3.20;99.90
5280;DHT22;2663;53.588;10.010;2023-03-01T00:34:22;3.30;99.90
5280;DHT22;2663;53.588;10.010;2023-03-01T00:36:49;3.20;99.90
5280;DHT22;2663;53.588;10.010;2023-03-01T00:39:16;3.20;99.90
5280;DHT22;2663;53.588;10.010;2023-03-01T00:41:42;3.20;99.90
5280;DHT22;2663;53.588;10.010;2023-03-01T00:44:09;3.20;99.90
5280;DHT22;2663;53.588;10.010;2023-03-01T00:46:37;3.20;99.90
5280;DHT22;2663;53.588;10.010;2023-03-01T00:49:04;3.20;99.90
5280;DHT22;2663;53.588;10.010;2023-03-01T00:51:31;3.20;99.90
5280;DHT22;2663;53.588;10.010;2023-03-01T00:54:01;3.20;99.90
5280;DHT22;2663;53.588;10.010;2023-03-01T00:56:28;3.20;99.90
5280;DHT22;2663;53.588;10.010;2023-03-01T00:58:55;3.10;99.90
5280;DHT22;2663;53.588;10.010;2023-03-01T01:01:25;3.20;99.90
5280;DHT22;2663;53.588;10.010;2023-03-01T01:04:03;3.20;99.90
5280;DHT22;2663;53.588;10.010;2023-03-01T01:06:33;4.10;99.90
5280;DHT22;2663;53.588;10.010;2023-03-01T01:09:01;3.10;99.90
5280;DHT22;2663;53.588;10.010;2023-03-01T01:11:29;3.00;99.90
5280;DHT22;2663;53.588;10.010;2023-03-01T01:13:56;3.00;99.90
5280;DHT22;2663;53.588;10.010;2023-03-01T01:16:25;3.00;99.90
5280;DHT22;2663;53.588;10.010;2023-03-01T01:18:51;3.10;99.90
5280;DHT22;2663;53.588;10.010;2023-03-01T01:21:21;3.10;99.90
5280;DHT22;2663;53.588;10.010;2023-03-01T01:23:48;3.10;99.90
5280;DHT22;2663;53.588;10.010;2023-03-01T01:26:21;3.10;99.90
5280;DHT22;2663;53.588;10.010;2023-03-01T01:28:48;3.10;99.90
5280;DHT22;2663;53.588;10.010;2023-03-01T01:31:15;3.10;99.90
5280;DHT22;2663;53.588;10.010;2023-03-01T01:33:42;3.10;99.90
5280;DHT22;2663;53.588;10.010;2023-03-01T01:36:09;3.10;99.90
5280;DHT22;2663;53.588;10.010;2023-03-01T01:38:37;3.10;99.90
5280;DHT22;2663;53.588;10.010;2023-03-01T01:41:05;3.10;99.90
5280;DHT22;2663;53.588;10.010;2023-03-01T01:43:38;3.10;99.90
5280;DHT22;2663;53.588;10.010;2023-03-01T01:48:58;3.10;99.90
5280;DHT22;2663;53.588;10.010;2023-03-01T01:51:31;3.00;99.90
5280;DHT22;2663;53.588;10.010;2023-03-01T01:54:27;3.00;99.90
5280;DHT22;2663;53.588;10.010;2023-03-01T01:57:00;3.00;99.90
5280;DHT22;2663;53.588;10.010;2023-03-01T01:59:30;3.00;99.90
5280;DHT22;2663;53.588;10.010;2023-03-01T02:02:00;3.00;99.90
5280;DHT22;2663;53.588;10.010;2023-03-01T02:04:28;3.10;99.90
5280;DHT22;2663;53.588;10.010;2023-03-01T02:09:38;3.10;99.90
5280;DHT22;2663;53.588;10.010;2023-03-01T02:12:06;3.20;99.90
5280;DHT22;2663;53.588;10.010;2023-03-01T02:14:33;3.20;99.90
5280;DHT22;2663;53.588;10.010;2023-03-01T02:17:00;3.30;99.90
5280;DHT22;2663;53.588;10.010;2023-03-01T02:22:22;3.30;99.90
5280;DHT22;2663;53.588;10.010;2023-03-01T02:28:04;3.30;99.90
5280;DHT22;2663;53.588;10.010;2023-03-01T02:30:33;3.40;99.90
5280;DHT22;2663;53.588;10.010;2023-03-01T02:33:00;3.30;99.90
5280;DHT22;2663;53.588;10.010;2023-03-01T02:35:37;3.30;99.90
5280;DHT22;2663;53.588;10.010;2023-03-01T02:38:07;3.30;99.90
5280;DHT22;2663;53.588;10.010;2023-03-01T02:40:36;3.30;99.90
5280;DHT22;2663;53.588;10.010;2023-03-01T02:43:06;3.20;99.90
5280;DHT22;2663;53.588;10.010;2023-03-01T02:45:35;3.30;99.90
5280;DHT22;2663;53.588;10.010;2023-03-01T02:48:01;3.40;99.90
5280;DHT22;2663;53.588;10.010;2023-03-01T02:53:08;3.40;99.90
5280;DHT22;2663;53.588;10.010;2023-03-01T02:55:37;3.40;99.90
5280;DHT22;2663;53.588;10.010;2023-03-01T02:58:05;3.50;99.90
5280;DHT22;2663;53.588;10.010;2023-03-01T03:00:36;3.50;99.90
5280;DHT22;2663;53.588;10.010;2023-03-01T03:03:07;3.50;99.90
5280;DHT22;2663;53.588;10.010;2023-03-01T03:05:34;3.40;99.90
5280;DHT22;2663;53.588;10.010;2023-03-01T03:08:02;3.40;99.90
5280;DHT22;2663;53.588;10.010;2023-03-01T03:10:35;3.40;99.90
5280;DHT22;2663;53.588;10.010;2023-03-01T03:13:08;3.50;99.90
5280;DHT22;2663;53.588;10.010;2023-03-01T03:15:36;3.30;99.90
5280;DHT22;2663;53.588;10.010;2023-03-01T03:18:05;3.30;99.90
5280;DHT22;2663;53.588;10.010;2023-03-01T03:20:32;3.20;99.90
5280;DHT22;2663;53.588;10.010;2023-03-01T03:22:59;3.20;99.90
5280;DHT22;2663;53.588;10.010;2023-03-01T03:25:27;3.20;99.90
5280;DHT22;2663;53.588;10.010;2023-03-01T03:27:55;3.20;99.90
5280;DHT22;2663;53.588;10.010;2023-03-01T03:30:27;3.10;99.90
5280;DHT22;2663;53.588;10.010;2023-03-01T03:32:55;3.20;99.90
5280;DHT22;2663;53.588;10.010;2023-03-01T03:35:30;3.20;99.90
5280;DHT22;2663;53.588;10.010;2023-03-01T03:37:59;3.20;99.90
5280;DHT22;2663;53.588;10.010;2023-03-01T03:40:35;3.30;99.90
5280;DHT22;2663;53.588;10.010;2023-03-01T03:43:22;3.30;99.90
5280;DHT22;2663;53.588;10.010;2023-03-01T03:45:50;3.40;99.90
5280;DHT22;2663;53.588;10.010;2023-03-01T03:48:18;3.50;99.90
5280;DHT22;2663;53.588;10.010;2023-03-01T03:50:50;3.50;99.90
5280;DHT22;2663;53.588;10.010;2023-03-01T03:53:18;3.40;99.90
5280;DHT22;2663;53.588;10.010;2023-03-01T03:55:45;3.40;99.90
5280;DHT22;2663;53.588;10.010;2023-03-01T03:58:16;3.50;99.90
5280;DHT22;2663;53.588;10.010;2023-03-01T04:00:48;3.50;99.90
5280;DHT22;2663;53.588;10.010;2023-03-01T04:03:16;3.70;99.90
5280;DHT22;2663;53.588;10.010;2023-03-01T04:05:46;3.60;99.90
5280;DHT22;2663;53.588;10.010;2023-03-01T04:08:13;3.60;99.90
5280;DHT22;2663;53.588;10.010;2023-03-01T04:10:43;3.80;99.90
5280;DHT22;2663;53.588;10.010;2023-03-01T04:13:15;3.70;99.90
5280;DHT22;2663;53.588;10.010;2023-03-01T04:15:43;3.80;99.90
5280;DHT22;2663;53.588;10.010;2023-03-01T04:18:12;3.70;99.90
5280;DHT22;2663;53.588;10.010;2023-03-01T04:20:40;3.80;99.90
5280;DHT22;2663;53.588;10.010;2023-03-01T04:23:09;3.70;99.90
5280;DHT22;2663;53.588;10.010;2023-03-01T04:26:02;3.70;99.90
5280;DHT22;2663;53.588;10.010;2023-03-01T04:28:33;3.80;99.90
5280;DHT22;2663;53.588;10.010;2023-03-01T04:31:04;3.80;99.90
5280;DHT22;2663;53.588;10.010;2023-03-01T04:33:50;3.80;99.90
5280;DHT22;2663;53.588;10.010;2023-03-01T04:36:24;3.80;99.90
5280;DHT22;2663;53.588;10.010;2023-03-01T04:38:51;3.80;99.90
5280;DHT22;2663;53.588;10.010;2023-03-01T04:41:20;3.80;99.90
5280;DHT22;2663;53.588;10.010;2023-03-01T04:43:47;3.90;99.90
5280;DHT22;2663;53.588;10.010;2023-03-01T04:46:19;3.80;99.90
5280;DHT22;2663;53.588;10.010;2023-03-01T04:48:47;3.80;99.90
5280;DHT22;2663;53.588;10.010;2023-03-01T04:51:14;3.80;99.90
5280;DHT22;2663;53.588;10.010;2023-03-01T04:53:42;3.90;99.90
5280;DHT22;2663;53.588;10.010;2023-03-01T04:56:09;3.90;99.90
5280;DHT22;2663;53.588;10.010;2023-03-01T04:58:36;3.90;99.90
5280;DHT22;2663;53.588;10.010;2023-03-01T05:01:09;3.90;99.90
5280;DHT22;2663;53.588;10.010;2023-03-01T05:03:43;3.90;99.90
5280;DHT22;2663;53.588;10.010;2023-03-01T05:06:11;3.90;99.90
5280;DHT22;2663;53.588;10.010;2023-03-01T05:08:39;3.90;99.90
5280;DHT22;2663;53.588;10.010;2023-03-01T05:11:06;4.00;99.90
5280;DHT22;2663;53.588;10.010;2023-03-01T05:13:39;4.00;99.90
5280;DHT22;2663;53.588;10.010;2023-03-01T05:16:07;4.00;99.90
5280;DHT22;2663;53.588;10.010;2023-03-01T05:18:38;4.20;99.90
5280;DHT22;2663;53.588;10.010;2023-03-01T05:21:07;4.10;99.90
5280;DHT22;2663;53.588;10.010;2023-03-01T05:23:35;4.10;99.90
5280;DHT22;2663;53.588;10.010;2023-03-01T05:26:04;5.40;99.90
5280;DHT22;2663;53.588;10.010;2023-03-01T05:28:36;4.10;99.90
5280;DHT22;2663;53.588;10.010;2023-03-01T05:31:04;4.10;99.90
5280;DHT22;2663;53.588;10.010;2023-03-01T05:33:40;4.20;99.90
5280;DHT22;2663;53.588;10.010;2023-03-01T05:36:08;3.90;99.90
5280;DHT22;2663;53.588;10.010;2023-03-01T05:38:36;4.00;99.90
5280;DHT22;2663;53.588;10.010;2023-03-01T05:41:03;4.00;99.90
5280;DHT22;2663;53.588;10.010;2023-03-01T05:43:31;4.00;99.90
5280;DHT22;2663;53.588;10.010;2023-03-01T05:46:00;3.90;99.90
5280;DHT22;2663;53.588;10.010;2023-03-01T05:48:27;4.00;99.90
5280;DHT22;2663;53.588;10.010;2023-03-01T05:50:54;4.00;99.90
5280;DHT22;2663;53.588;10.010;2023-03-01T05:53:20;4.00;99.90
5280;DHT22;2663;53.588;10.010;2023-03-01T05:55:48;4.10;99.90
5280;DHT22;2663;53.588;10.010;2023-03-01T05:58:18;4.10;99.90
5280;DHT22;2663;53.588;10.010;2023-03-01T06:00:47;4.00;99.90
5280;DHT22;2663;53.588;10.010;2023-03-01T06:03:16;4.00;99.90
5280;DHT22;2663;53.588;10.010;2023-03-01T06:05:43;4.10;99.90
5280;DHT22;2663;53.588;10.010;2023-03-01T06:08:11;4.10;99.90
5280;DHT22;2663;53.588;10.010;2023-03-01T06:10:38;4.00;99.90
5280;DHT22;2663;53.588;10.010;2023-03-01T06:13:05;4.00;99.90
5280;DHT22;2663;53.588;10.010;2023-03-01T06:15:32;4.40;99.90
5280;DHT22;2663;53.588;10.010;2023-03-01T06:17:58;4.00;99.90
5280;DHT22;2663;53.588;10.010;2023-03-01T06:20:27;4.00;99.90
5280;DHT22;2663;53.588;10.010;2023-03-01T06:22:54;4.10;99.90
5280;DHT22;2663;53.588;10.010;2023-03-01T06:25:23;4.10;99.90
5280;DHT22;2663;53.588;10.010;2023-03-01T06:27:50;4.20;99.90
5280;DHT22;2663;53.588;10.010;2023-03-01T06:30:20;4.10;99.90
5280;DHT22;2663;53.588;10.010;2023-03-01T06:32:47;3.80;99.90
5280;DHT22;2663;53.588;10.010;2023-03-01T06:35:15;3.80;99.90
5280;DHT22;2663;53.588;10.010;2023-03-01T06:37:45;3.80;99.90
5280;DHT22;2663;53.588;10.010;2023-03-01T06:40:12;3.80;99.90
5280;DHT22;2663;53.588;10.010;2023-03-01T06:42:41;4.00;99.90
5280;DHT22;2663;53.588;10.010;2023-03-01T06:45:09;4.10;99.90
5280;DHT22;2663;53.588;10.010;2023-03-01T06:47:36;4.10;99.90
5280;DHT22;2663;53.588;10.010;2023-03-01T06:50:03;4.20;99.90
5280;DHT22;2663;53.588;10.010;2023-03-01T06:52:30;4.20;99.90
5280;DHT22;2663;53.588;10.010;2023-03-01T06:54:57;4.30;99.90
5280;DHT22;2663;53.588;10.010;2023-03-01T06:57:24;4.30;99.90
5280;DHT22;2663;53.588;10.010;2023-03-01T06:59:51;4.40;99.90
5280;DHT22;2663;53.588;10.010;2023-03-01T07:02:18;4.50;99.90
5280;DHT22;2663;53.588;10.010;2023-03-01T07:04:44;4.60;99.90
5280;DHT22;2663;53.588;10.010;2023-03-01T07:07:11;4.80;99.90
5280;DHT22;2663;53.588;10.010;2023-03-01T07:09:38;3.80;99.90
5280;DHT22;2663;53.588;10.010;2023-03-01T07:12:05;4.50;99.90
5280;DHT22;2663;53.588;10.010;2023-03-01T07:14:31;4.40;99.90
5280;DHT22;2663;53.588;10.010;2023-03-01T07:16:58;4.50;99.90
5280;DHT22;2663;53.588;10.010;2023-03-01T07:19:25;4.60;99.90
5280;DHT22;2663;53.588;10.010;2023-03-01T07:21:51;4.60;99.90
5280;DHT22;2663;53.588;10.010;2023-03-01T07:24:18;5.00;99.90
5280;DHT22;2663;53.588;10.010;2023-03-01T07:26:51;5.40;99.90
5280;DHT22;2663;53.588;10.010;2023-03-01T07:29:18;5.20;99.90
5280;DHT22;2663;53.588;10.010;2023-03-01T07:31:45;5.30;99.90
5280;DHT22;2663;53.588;10.010;2023-03-01T07:34:11;4.90;99.90
5280;DHT22;2663;53.588;10.010;2023-03-01T07:36:38;4.80;99.90
5280;DHT22;2663;53.588;10.010;2023-03-01T07:39:06;4.80;99.90
5280;DHT22;2663;53.588;10.010;2023-03-01T07:41:33;5.00;99.90
5280;DHT22;2663;53.588;10.010;2023-03-01T07:43:59;4.60;99.90
5280;DHT22;2663;53.588;10.010;2023-03-01T07:46:26;4.30;99.90
5280;DHT22;2663;53.588;10.010;2023-03-01T07:48:53;4.30;99.90
5280;DHT22;2663;53.588;10.010;2023-03-01T07:51:20;4.40;99.90
5280;DHT22;2663;53.588;10.010;2023-03-01T07:53:48;4.50;99.90
5280;DHT22;2663;53.588;10.010;2023-03-01T07:56:15;4.60;99.90
5280;DHT22;2663;53.588;10.010;2023-03-01T07:58:44;4.50;99.90
5280;DHT22;2663;53.588;10.010;2023-03-01T08:01:17;4.60;99.90
5280;DHT22;2663;53.588;10.010;2023-03-01T08:03:44;4.60;99.90
5280;DHT22;2663;53.588;10.010;2023-03-01T08:06:12;4.60;99.90
5280;DHT22;2663;53.588;10.010;2023-03-01T08:08:39;4.40;99.90
5280;DHT22;2663;53.588;10.010;2023-03-01T08:11:09;4.40;99.90
5280;DHT22;2663;53.588;10.010;2023-03-01T08:13:36;4.40;99.90
5280;DHT22;2663;53.588;10.010;2023-03-01T08:16:05;4.40;99.90
5280;DHT22;2663;53.588;10.010;2023-03-01T08:18:32;4.50;99.90
5280;DHT22;2663;53.588;10.010;2023-03-01T08:21:16;4.60;99.90
5280;DHT22;2663;53.588;10.010;2023-03-01T08:23:43;4.80;99.90
5280;DHT22;2663;53.588;10.010;2023-03-01T08:26:12;4.90;99.90
5280;DHT22;2663;53.588;10.010;2023-03-01T08:28:41;4.90;99.90
5280;DHT22;2663;53.588;10.010;2023-03-01T08:31:16;4.90;99.90
5280;DHT22;2663;53.588;10.010;2023-03-01T08:33:43;5.00;99.90
5280;DHT22;2663;53.588;10.010;2023-03-01T08:36:10;5.00;99.90
5280;DHT22;2663;53.588;10.010;2023-03-01T08:38:36;5.10;99.90
5280;DHT22;2663;53.588;10.010;2023-03-01T08:41:03;5.20;99.90
5280;DHT22;2663;53.588;10.010;2023-03-01T08:43:30;5.40;99.90
5280;DHT22;2663;53.588;10.010;2023-03-01T08:45:57;5.40;99.90
5280;DHT22;2663;53.588;10.010;2023-03-01T08:48:25;5.30;99.90
5280;DHT22;2663;53.588;10.010;2023-03-01T08:50:51;5.40;99.90
5280;DHT22;2663;53.588;10.010;2023-03-01T08:53:18;5.50;99.90
5280;DHT22;2663;53.588;10.010;2023-03-01T08:55:45;5.40;99.90
5280;DHT22;2663;53.588;10.010;2023-03-01T08:58:11;5.50;99.90
5280;DHT22;2663;53.588;10.010;2023-03-01T09:00:38;5.50;99.90
5280;DHT22;2663;53.588;10.010;2023-03-01T09:03:06;5.70;99.90
5280;DHT22;2663;53.588;10.010;2023-03-01T09:05:33;5.80;99.90
5280;DHT22;2663;53.588;10.010;2023-03-01T09:08:00;5.80;99.90
5280;DHT22;2663;53.588;10.010;2023-03-01T09:10:27;5.90;99.90
5280;DHT22;2663;53.588;10.010;2023-03-01T09:12:54;5.90;99.90
5280;DHT22;2663;53.588;10.010;2023-03-01T09:15:21;6.00;99.90
5280;DHT22;2663;53.588;10.010;2023-03-01T09:17:47;6.10;99.90
5280;DHT22;2663;53.588;10.010;2023-03-01T09:20:14;6.10;99.90
5280;DHT22;2663;53.588;10.010;2023-03-01T09:22:40;6.00;99.90
5280;DHT22;2663;53.588;10.010;2023-03-01T09:25:07;6.10;99.90
5280;DHT22;2663;53.588;10.010;2023-03-01T09:27:34;6.10;99.90
5280;DHT22;2663;53.588;10.010;2023-03-01T09:30:01;6.20;99.90
5280;DHT22;2663;53.588;10.010;2023-03-01T09:32:30;7.70;99.90
5280;DHT22;2663;53.588;10.010;2023-03-01T09:34:57;5.90;99.90
5280;DHT22;2663;53.588;10.010;2023-03-01T09:37:32;5.90;99.90
5280;DHT22;2663;53.588;10.010;2023-03-01T09:39:59;6.00;99.90
5280;DHT22;2663;53.588;10.010;2023-03-01T09:42:28;6.00;99.90
5280;DHT22;2663;53.588;10.010;2023-03-01T09:45:11;6.00;99.90
5280;DHT22;2663;53.588;10.010;2023-03-01T09:47:42;6.10;99.90
5280;DHT22;2663;53.588;10.010;2023-03-01T09:53:07;6.20;99.90
5280;DHT22;2663;53.588;10.010;2023-03-01T10:07:21;6.40;99.90
5280;DHT22;2663;53.588;10.010;2023-03-01T10:09:48;6.50;99.90
5280;DHT22;2663;53.588;10.010;2023-03-01T10:12:19;6.50;99.90
5280;DHT22;2663;53.588;10.010;2023-03-01T10:17:55;6.40;99.90
5280;DHT22;2663;53.588;10.010;2023-03-01T10:20:53;6.40;99.90
5280;DHT22;2663;53.588;10.010;2023-03-01T10:23:22;6.30;99.90
5280;DHT22;2663;53.588;10.010;2023-03-01T10:28:59;6.50;99.90
5280;DHT22;2663;53.588;10.010;2023-03-01T10:34:35;6.70;99.90
5280;DHT22;2663;53.588;10.010;2023-03-01T10:39:55;6.90;99.90
5280;DHT22;2663;53.588;10.010;2023-03-01T10:42:30;7.00;99.90
5280;DHT22;2663;53.588;10.010;2023-03-01T10:44:58;7.00;99.90
5280;DHT22;2663;53.588;10.010;2023-03-01T10:47:40;7.00;99.90
5280;DHT22;2663;53.588;10.010;2023-03-01T10:50:20;7.10;99.90
5280;DHT22;2663;53.588;10.010;2023-03-01T10:52:59;7.00;99.90
5280;DHT22;2663;53.588;10.010;2023-03-01T10:55:37;6.90;99.90
5280;DHT22;2663;53.588;10.010;2023-03-01T10:58:20;6.90;99.90
5280;DHT22;2663;53.588;10.010;2023-03-01T11:00:52;6.90;99.90
5280;DHT22;2663;53.588;10.010;2023-03-01T11:03:25;6.90;99.90
5280;DHT22;2663;53.588;10.010;2023-03-01T11:08:40;7.00;99.90
5280;DHT22;2663;53.588;10.010;2023-03-01T11:11:46;7.10;99.90
5280;DHT22;2663;53.588;10.010;2023-03-01T11:14:24;7.00;99.90
5280;DHT22;2663;53.588;10.010;2023-03-01T11:17:00;7.00;99.90
5280;DHT22;2663;53.588;10.010;2023-03-01T11:19:27;6.80;99.90
5280;DHT22;2663;53.588;10.010;2023-03-01T11:22:19;6.80;99.90
5280;DHT22;2663;53.588;10.010;2023-03-01T11:24:51;8.20;99.90
5280;DHT22;2663;53.588;10.010;2023-03-01T11:27:38;6.90;99.90
5280;DHT22;2663;53.588;10.010;2023-03-01T11:30:18;7.00;99.90
5280;DHT22;2663;53.588;10.010;2023-03-01T11:35:24;7.40;99.90
5280;DHT22;2663;53.588;10.010;2023-03-01T11:38:03;7.60;99.90
5280;DHT22;2663;53.588;10.010;2023-03-01T11:50:52;7.20;99.90
5280;DHT22;2663;53.588;10.010;2023-03-01T11:53:41;7.50;99.90
5280;DHT22;2663;53.588;10.010;2023-03-01T12:04:24;7.90;99.90
5280;DHT22;2663;53.588;10.010;2023-03-01T12:07:01;7.90;99.90
5280;DHT22;2663;53.588;10.010;2023-03-01T12:09:42;8.00;99.90
5280;DHT22;2663;53.588;10.010;2023-03-01T12:14:59;8.20;99.90
5280;DHT22;2663;53.588;10.010;2023-03-01T12:20:20;8.50;99.90
5280;DHT22;2663;53.588;10.010;2023-03-01T12:31:41;8.80;99.90
5280;DHT22;2663;53.588;10.010;2023-03-01T12:40:09;8.90;99.90
5280;DHT22;2663;53.588;10.010;2023-03-01T12:45:54;8.90;99.90
5280;DHT22;2663;53.588;10.010;2023-03-01T12:51:02;9.00;99.90
5280;DHT22;2663;53.588;10.010;2023-03-01T12:53:44;9.00;99.90
5280;DHT22;2663;53.588;10.010;2023-03-01T12:56:15;8.90;99.90
5280;DHT22;2663;53.588;10.010;2023-03-01T12:59:03;9.10;99.90
5280;DHT22;2663;53.588;10.010;2023-03-01T13:04:33;9.20;99.90
5280;DHT22;2663;53.588;10.010;2023-03-01T13:17:51;9.20;99.90
5280;DHT22;2663;53.588;10.010;2023-03-01T13:20:25;9.10;99.90
5280;DHT22;2663;53.588;10.010;2023-03-01T13:26:11;8.70;99.90
5280;DHT22;2663;53.588;10.010;2023-03-01T13:31:56;9.10;99.90
5280;DHT22;2663;53.588;10.010;2023-03-01T13:34:01;9.20;99.90
5280;DHT22;2663;53.588;10.010;2023-03-01T13:39:13;9.10;99.90
5280;DHT22;2663;53.588;10.010;2023-03-01T13:41:54;9.30;99.90
5280;DHT22;2663;53.588;10.010;2023-03-01T13:44:37;9.30;99.90
5280;DHT22;2663;53.588;10.010;2023-03-01T13:52:43;9.30;99.90
5280;DHT22;2663;53.588;10.010;2023-03-01T13:55:45;9.10;99.90
5280;DHT22;2663;53.588;10.010;2023-03-01T13:58:22;8.90;99.90
5280;DHT22;2663;53.588;10.010;2023-03-01T14:01:04;9.10;99.90
5280;DHT22;2663;53.588;10.010;2023-03-01T14:03:33;9.50;99.90
5280;DHT22;2663;53.588;10.010;2023-03-01T14:06:07;9.70;99.90
5280;DHT22;2663;53.588;10.010;2023-03-01T14:08:43;9.80;99.90
5280;DHT22;2663;53.588;10.010;2023-03-01T14:16:44;9.80;99.90
5280;DHT22;2663;53.588;10.010;2023-03-01T14:19:26;9.80;99.90
5280;DHT22;2663;53.588;10.010;2023-03-01T14:22:20;9.90;99.90
5280;DHT22;2663;53.588;10.010;2023-03-01T14:25:01;9.80;99.90
5280;DHT22;2663;53.588;10.010;2023-03-01T14:27:33;9.80;99.90
5280;DHT22;2663;53.588;10.010;2023-03-01T14:30:04;9.70;99.90
5280;DHT22;2663;53.588;10.010;2023-03-01T14:32:36;9.60;99.90
5280;DHT22;2663;53.588;10.010;2023-03-01T14:35:24;9.60;99.90
5280;DHT22;2663;53.588;10.010;2023-03-01T14:37:51;9.60;99.90
5280;DHT22;2663;53.588;10.010;2023-03-01T14:40:27;9.50;99.90
5280;DHT22;2663;53.588;10.010;2023-03-01T14:42:56;10.50;99.90
5280;DHT22;2663;53.588;10.010;2023-03-01T14:45:26;9.40;99.90
5280;DHT22;2663;53.588;10.010;2023-03-01T14:47:54;9.40;99.90
5280;DHT22;2663;53.588;10.010;2023-03-01T14:50:25;8.00;99.90
5280;DHT22;2663;53.588;10.010;2023-03-01T14:52:57;9.40;99.90
5280;DHT22;2663;53.588;10.010;2023-03-01T14:55:34;9.30;99.90
5280;DHT22;2663;53.588;10.010;2023-03-01T14:58:08;9.20;99.90
5280;DHT22;2663;53.588;10.010;2023-03-01T15:00:36;9.20;99.90
5280;DHT22;2663;53.588;10.010;2023-03-01T15:03:23;9.20;99.90
5280;DHT22;2663;53.588;10.010;2023-03-01T15:05:51;9.10;99.90
5280;DHT22;2663;53.588;10.010;2023-03-01T15:08:22;9.20;99.90
5280;DHT22;2663;53.588;10.010;2023-03-01T15:11:21;9.10;99.90
5280;DHT22;2663;53.588;10.010;2023-03-01T15:13:52;8.90;99.90
5280;DHT22;2663;53.588;10.010;2023-03-01T15:16:31;8.90;99.90
5280;DHT22;2663;53.588;10.010;2023-03-01T15:19:04;8.90;99.90
5280;DHT22;2663;53.588;10.010;2023-03-01T15:21:34;9.00;99.90
5280;DHT22;2663;53.588;10.010;2023-03-01T15:26:41;8.90;99.90
5280;DHT22;2663;53.588;10.010;2023-03-01T15:29:19;8.90;99.90
5280;DHT22;2663;53.588;10.010;2023-03-01T15:34:32;9.00;99.90
5280;DHT22;2663;53.588;10.010;2023-03-01T15:37:01;8.90;99.90
5280;DHT22;2663;53.588;10.010;2023-03-01T15:39:41;8.90;99.90
5280;DHT22;2663;53.588;10.010;2023-03-01T15:47:40;9.00;99.90
5280;DHT22;2663;53.588;10.010;2023-03-01T15:52:53;9.00;99.90
5280;DHT22;2663;53.588;10.010;2023-03-01T15:57:49;8.90;99.90
5280;DHT22;2663;53.588;10.010;2023-03-01T16:00:17;9.00;99.90
5280;DHT22;2663;53.588;10.010;2023-03-01T16:02:44;9.00;99.90
5280;DHT22;2663;53.588;10.010;2023-03-01T16:05:27;8.90;99.90
5280;DHT22;2663;53.588;10.010;2023-03-01T16:07:54;8.80;99.90
5280;DHT22;2663;53.588;10.010;2023-03-01T16:10:21;8.70;99.90
5280;DHT22;2663;53.588;10.010;2023-03-01T16:12:49;8.60;99.90
5280;DHT22;2663;53.588;10.010;2023-03-01T16:15:21;8.60;99.90
5280;DHT22;2663;53.588;10.010;2023-03-01T16:17:48;8.60;99.90
5280;DHT22;2663;53.588;10.010;2023-03-01T16:20:15;8.50;99.90
5280;DHT22;2663;53.588;10.010;2023-03-01T16:22:53;8.60;99.90
5280;DHT22;2663;53.588;10.010;2023-03-01T16:25:21;8.60;99.90
5280;DHT22;2663;53.588;10.010;2023-03-01T16:27:49;8.60;99.90
5280;DHT22;2663;53.588;10.010;2023-03-01T16:30:19;8.60;99.90
5280;DHT22;2663;53.588;10.010;2023-03-01T16:32:47;8.50;99.90
5280;DHT22;2663;53.588;10.010;2023-03-01T16:35:16;8.60;99.90
5280;DHT22;2663;53.588;10.010;2023-03-01T16:37:43;8.50;99.90
5280;DHT22;2663;53.588;10.010;2023-03-01T16:40:20;8.50;99.90
5280;DHT22;2663;53.588;10.010;2023-03-01T16:42:48;8.40;99.90
5280;DHT22;2663;53.588;10.010;2023-03-01T16:45:15;8.30;99.90
5280;DHT22;2663;53.588;10.010;2023-03-01T16:47:51;8.30;99.90
5280;DHT22;2663;53.588;10.010;2023-03-01T16:50:21;8.30;99.90
5280;DHT22;2663;53.588;10.010;2023-03-01T16:52:48;8.30;99.90
5280;DHT22;2663;53.588;10.010;2023-03-01T16:55:15;8.20;99.90
5280;DHT22;2663;53.588;10.010;2023-03-01T16:57:41;8.10;99.90
5280;DHT22;2663;53.588;10.010;2023-03-01T17:00:10;8.00;99.90
5280;DHT22;2663;53.588;10.010;2023-03-01T17:02:40;7.90;99.90
5280;DHT22;2663;53.588;10.010;2023-03-01T17:05:08;7.90;99.90
5280;DHT22;2663;53.588;10.010;2023-03-01T17:11:42;7.80;99.90
5280;DHT22;2663;53.588;10.010;2023-03-01T17:14:09;7.90;99.90
5280;DHT22;2663;53.588;10.010;2023-03-01T17:16:36;7.80;99.90
5280;DHT22;2663;53.588;10.010;2023-03-01T17:19:03;7.70;99.90
5280;DHT22;2663;53.588;10.010;2023-03-01T17:21:30;7.80;99.90
5280;DHT22;2663;53.588;10.010;2023-03-01T17:23:57;7.80;99.90
5280;DHT22;2663;53.588;10.010;2023-03-01T17:26:24;7.90;99.90
5280;DHT22;2663;53.588;10.010;2023-03-01T17:28:51;8.00;99.90
5280;DHT22;2663;53.588;10.010;2023-03-01T17:31:18;6.90;99.90
5280;DHT22;2663;53.588;10.010;2023-03-01T17:33:45;8.10;99.90
5280;DHT22;2663;53.588;10.010;2023-03-01T17:36:12;8.00;99.90
5280;DHT22;2663;53.588;10.010;2023-03-01T17:38:39;7.80;99.90
5280;DHT22;2663;53.588;10.010;2023-03-01T17:41:06;8.10;99.90
5280;DHT22;2663;53.588;10.010;2023-03-01T17:43:33;7.50;99.90
5280;DHT22;2663;53.588;10.010;2023-03-01T17:46:02;7.20;99.90
5280;DHT22;2663;53.588;10.010;2023-03-01T17:48:29;7.10;99.90
5280;DHT22;2663;53.588;10.010;2023-03-01T17:50:56;6.90;99.90
5280;DHT22;2663;53.588;10.010;2023-03-01T17:53:23;6.70;99.90
5280;DHT22;2663;53.588;10.010;2023-03-01T17:55:59;6.30;99.90
5280;DHT22;2663;53.588;10.010;2023-03-01T17:58:26;4.30;99.90
5280;DHT22;2663;53.588;10.010;2023-03-01T18:00:53;5.90;99.90
5280;DHT22;2663;53.588;10.010;2023-03-01T18:03:20;5.80;99.90
5280;DHT22;2663;53.588;10.010;2023-03-01T18:05:47;5.70;99.90
5280;DHT22;2663;53.588;10.010;2023-03-01T18:08:14;5.70;99.90
5280;DHT22;2663;53.588;10.010;2023-03-01T18:10:41;5.60;99.90
5280;DHT22;2663;53.588;10.010;2023-03-01T18:13:08;5.50;99.90
5280;DHT22;2663;53.588;10.010;2023-03-01T18:15:36;5.50;99.90
5280;DHT22;2663;53.588;10.010;2023-03-01T18:18:02;5.40;99.90
5280;DHT22;2663;53.588;10.010;2023-03-01T18:20:29;5.40;99.90
5280;DHT22;2663;53.588;10.010;2023-03-01T18:22:58;5.30;99.90
5280;DHT22;2663;53.588;10.010;2023-03-01T18:25:25;5.30;99.90
5280;DHT22;2663;53.588;10.010;2023-03-01T18:27:51;5.20;99.90
5280;DHT22;2663;53.588;10.010;2023-03-01T18:30:18;5.20;99.90
5280;DHT22;2663;53.588;10.010;2023-03-01T18:32:45;5.40;99.90
5280;DHT22;2663;53.588;10.010;2023-03-01T18:35:11;7.00;99.90
5280;DHT22;2663;53.588;10.010;2023-03-01T18:37:38;5.30;99.90
5280;DHT22;2663;53.588;10.010;2023-03-01T18:40:05;4.70;99.90
5280;DHT22;2663;53.588;10.010;2023-03-01T18:42:33;5.30;99.90
5280;DHT22;2663;53.588;10.010;2023-03-01T18:45:00;5.30;99.90